Allerton, New York
Current Conditions -  °F | °C
As of 9:51 PM on Sunday 23 Nov 2014 (Local Time) from KLGA Reporting Station
Overcast Overcast  
Wind Chill: 11°   Ceiling: 25000
Heat Index: 11°   Visibility: 10mi
Dew Point:   Wind: 5mph
Humidity: 83%   Direction: 170°S
Pressure: 30.07"   Gusts: NA
Location:  40.8778°N, 73.8721°W
Report Text: KLGA 240251Z 17004KT 10SM SCT150 OVC250 11/08 A3007 RMK AO2 SLP181 T01060078 58019
Loading
Personal Weather Stations






























Interactive Weather Map New forecast layout! Learn more

10-Day Weather Forecast

Advertisements
Track Severe Weather on mobile